Terminal Aerodrome Forecast
Issued by NWS

Home | Current Version | Previous Version | Text Only | Print | Product List | Glossary On
Versions: 1 2 3 4 5 6 7 8 9 10 11 12 13 14 15 16 17 18 19 20 21 22 23 24 25 26
738
FTUS41 KGYX 251123
TAFAUG
TAF
KAUG 251123Z 2512/2612 VRB03KT 1/4SM FG VV002
     FM251500 16004KT 1SM BR BKN003
     FM251700 17006KT P6SM -SHRA BKN007
     FM260500 24010KT 5SM SHRA BR OVC015
     FM260900 31010KT P6SM SCT045=

USA.gov is the U.S. government's official web portal to all federal, state and local government web resources and services.